sensor_id;sensor_type;location;lat;lon;timestamp;temperature;humidity
51557;DHT22;38766;53.194;5.532;2022-11-10T00:01:06;11.70;99.90
51557;DHT22;38766;53.194;5.532;2022-11-10T00:03:32;11.70;99.90
51557;DHT22;38766;53.194;5.532;2022-11-10T00:06:01;11.70;99.90
51557;DHT22;38766;53.194;5.532;2022-11-10T00:08:27;11.80;99.90
51557;DHT22;38766;53.194;5.532;2022-11-10T00:10:52;11.70;99.90
51557;DHT22;38766;53.194;5.532;2022-11-10T00:13:39;11.70;99.90
51557;DHT22;38766;53.194;5.532;2022-11-10T00:16:25;11.70;99.90
51557;DHT22;38766;53.194;5.532;2022-11-10T00:19:09;11.70;99.90
51557;DHT22;38766;53.194;5.532;2022-11-10T00:21:35;11.70;99.90
51557;DHT22;38766;53.194;5.532;2022-11-10T00:24:02;11.70;99.90
51557;DHT22;38766;53.194;5.532;2022-11-10T00:26:28;11.70;99.90
51557;DHT22;38766;53.194;5.532;2022-11-10T00:28:53;11.70;99.90
51557;DHT22;38766;53.194;5.532;2022-11-10T00:31:20;11.70;99.90
51557;DHT22;38766;53.194;5.532;2022-11-10T00:33:45;11.70;99.90
51557;DHT22;38766;53.194;5.532;2022-11-10T00:36:11;11.70;99.90
51557;DHT22;38766;53.194;5.532;2022-11-10T00:38:36;11.70;99.90
51557;DHT22;38766;53.194;5.532;2022-11-10T00:41:03;11.70;99.90
51557;DHT22;38766;53.194;5.532;2022-11-10T00:43:29;11.70;99.90
51557;DHT22;38766;53.194;5.532;2022-11-10T00:45:55;11.80;99.90
51557;DHT22;38766;53.194;5.532;2022-11-10T00:48:21;11.70;99.90
51557;DHT22;38766;53.194;5.532;2022-11-10T00:50:47;11.70;99.90
51557;DHT22;38766;53.194;5.532;2022-11-10T00:53:12;11.70;99.90
51557;DHT22;38766;53.194;5.532;2022-11-10T00:55:41;11.70;99.90
51557;DHT22;38766;53.194;5.532;2022-11-10T00:58:07;11.60;99.90
51557;DHT22;38766;53.194;5.532;2022-11-10T01:00:33;11.60;99.90
51557;DHT22;38766;53.194;5.532;2022-11-10T01:02:59;11.60;99.90
51557;DHT22;38766;53.194;5.532;2022-11-10T01:05:27;11.60;99.90
51557;DHT22;38766;53.194;5.532;2022-11-10T01:07:53;11.60;99.90
51557;DHT22;38766;53.194;5.532;2022-11-10T01:10:18;11.60;99.90
51557;DHT22;38766;53.194;5.532;2022-11-10T01:12:44;11.60;99.90
51557;DHT22;38766;53.194;5.532;2022-11-10T01:15:09;11.60;99.90
51557;DHT22;38766;53.194;5.532;2022-11-10T01:17:35;11.60;99.90
51557;DHT22;38766;53.194;5.532;2022-11-10T01:20:00;11.60;99.90
51557;DHT22;38766;53.194;5.532;2022-11-10T01:22:26;11.60;99.90
51557;DHT22;38766;53.194;5.532;2022-11-10T01:24:52;11.60;99.90
51557;DHT22;38766;53.194;5.532;2022-11-10T01:27:18;11.70;99.90
51557;DHT22;38766;53.194;5.532;2022-11-10T01:29:43;11.60;99.90
51557;DHT22;38766;53.194;5.532;2022-11-10T01:32:10;11.60;99.90
51557;DHT22;38766;53.194;5.532;2022-11-10T01:34:35;11.60;99.90
51557;DHT22;38766;53.194;5.532;2022-11-10T01:37:01;11.60;99.90
51557;DHT22;38766;53.194;5.532;2022-11-10T01:39:27;11.60;99.90
51557;DHT22;38766;53.194;5.532;2022-11-10T01:41:52;11.50;99.90
51557;DHT22;38766;53.194;5.532;2022-11-10T01:44:20;11.50;99.90
51557;DHT22;38766;53.194;5.532;2022-11-10T01:46:46;11.50;99.90
51557;DHT22;38766;53.194;5.532;2022-11-10T01:49:14;11.50;99.90
51557;DHT22;38766;53.194;5.532;2022-11-10T01:51:53;11.50;99.90
51557;DHT22;38766;53.194;5.532;2022-11-10T01:54:29;11.50;99.90
51557;DHT22;38766;53.194;5.532;2022-11-10T01:57:01;11.40;99.90
51557;DHT22;38766;53.194;5.532;2022-11-10T01:59:30;11.40;99.90
51557;DHT22;38766;53.194;5.532;2022-11-10T02:02:02;11.40;99.90
51557;DHT22;38766;53.194;5.532;2022-11-10T02:04:32;11.40;99.90
51557;DHT22;38766;53.194;5.532;2022-11-10T02:06:58;11.40;99.90
51557;DHT22;38766;53.194;5.532;2022-11-10T02:09:24;11.40;99.90
51557;DHT22;38766;53.194;5.532;2022-11-10T02:11:51;11.40;99.90
51557;DHT22;38766;53.194;5.532;2022-11-10T02:14:17;11.40;99.90
51557;DHT22;38766;53.194;5.532;2022-11-10T02:16:43;11.40;99.90
51557;DHT22;38766;53.194;5.532;2022-11-10T02:19:21;11.40;99.90
51557;DHT22;38766;53.194;5.532;2022-11-10T02:21:47;11.40;99.90
51557;DHT22;38766;53.194;5.532;2022-11-10T02:24:13;11.50;99.90
51557;DHT22;38766;53.194;5.532;2022-11-10T02:26:45;11.40;99.90
51557;DHT22;38766;53.194;5.532;2022-11-10T02:29:13;11.50;99.90
51557;DHT22;38766;53.194;5.532;2022-11-10T02:31:40;11.40;99.90
51557;DHT22;38766;53.194;5.532;2022-11-10T02:34:05;11.40;99.90
51557;DHT22;38766;53.194;5.532;2022-11-10T02:36:31;11.30;99.90
51557;DHT22;38766;53.194;5.532;2022-11-10T02:38:56;11.30;99.90
51557;DHT22;38766;53.194;5.532;2022-11-10T02:41:22;11.40;99.90
51557;DHT22;38766;53.194;5.532;2022-11-10T02:43:48;11.20;99.90
51557;DHT22;38766;53.194;5.532;2022-11-10T02:46:13;11.20;99.90
51557;DHT22;38766;53.194;5.532;2022-11-10T02:48:39;11.20;99.90
51557;DHT22;38766;53.194;5.532;2022-11-10T02:51:05;11.20;99.90
51557;DHT22;38766;53.194;5.532;2022-11-10T02:53:30;11.20;99.90
51557;DHT22;38766;53.194;5.532;2022-11-10T02:55:56;11.20;99.90
51557;DHT22;38766;53.194;5.532;2022-11-10T02:58:22;11.20;99.90
51557;DHT22;38766;53.194;5.532;2022-11-10T03:00:47;11.20;99.90
51557;DHT22;38766;53.194;5.532;2022-11-10T03:03:13;11.20;99.90
51557;DHT22;38766;53.194;5.532;2022-11-10T03:05:39;11.20;99.90
51557;DHT22;38766;53.194;5.532;2022-11-10T03:08:04;11.20;99.90
51557;DHT22;38766;53.194;5.532;2022-11-10T03:10:30;11.20;99.90
51557;DHT22;38766;53.194;5.532;2022-11-10T03:12:57;11.10;99.90
51557;DHT22;38766;53.194;5.532;2022-11-10T03:15:24;11.20;99.90
51557;DHT22;38766;53.194;5.532;2022-11-10T03:17:50;11.10;99.90
51557;DHT22;38766;53.194;5.532;2022-11-10T03:20:16;11.20;99.90
51557;DHT22;38766;53.194;5.532;2022-11-10T03:22:42;11.20;99.90
51557;DHT22;38766;53.194;5.532;2022-11-10T03:25:08;11.20;99.90
51557;DHT22;38766;53.194;5.532;2022-11-10T03:27:34;11.20;99.90
51557;DHT22;38766;53.194;5.532;2022-11-10T03:30:00;11.20;99.90
51557;DHT22;38766;53.194;5.532;2022-11-10T03:32:25;11.20;99.90
51557;DHT22;38766;53.194;5.532;2022-11-10T03:34:51;11.20;99.90
51557;DHT22;38766;53.194;5.532;2022-11-10T03:37:17;11.20;99.90
51557;DHT22;38766;53.194;5.532;2022-11-10T03:39:42;11.20;99.90
51557;DHT22;38766;53.194;5.532;2022-11-10T03:42:08;11.20;99.90
51557;DHT22;38766;53.194;5.532;2022-11-10T03:44:33;11.20;99.90
51557;DHT22;38766;53.194;5.532;2022-11-10T03:46:59;11.10;99.90
51557;DHT22;38766;53.194;5.532;2022-11-10T03:49:27;11.10;99.90
51557;DHT22;38766;53.194;5.532;2022-11-10T03:51:53;11.10;99.90
51557;DHT22;38766;53.194;5.532;2022-11-10T03:54:18;11.00;99.90
51557;DHT22;38766;53.194;5.532;2022-11-10T03:56:44;11.10;99.90
51557;DHT22;38766;53.194;5.532;2022-11-10T03:59:11;11.00;99.90
51557;DHT22;38766;53.194;5.532;2022-11-10T04:01:36;11.00;99.90
51557;DHT22;38766;53.194;5.532;2022-11-10T04:04:02;10.90;99.90
51557;DHT22;38766;53.194;5.532;2022-11-10T04:06:27;10.90;99.90
51557;DHT22;38766;53.194;5.532;2022-11-10T04:09:11;10.90;99.90
51557;DHT22;38766;53.194;5.532;2022-11-10T04:11:37;10.90;99.90
51557;DHT22;38766;53.194;5.532;2022-11-10T04:14:21;10.90;99.90
51557;DHT22;38766;53.194;5.532;2022-11-10T04:17:05;11.00;99.90
51557;DHT22;38766;53.194;5.532;2022-11-10T04:19:31;11.00;99.90
51557;DHT22;38766;53.194;5.532;2022-11-10T04:21:57;11.00;99.90
51557;DHT22;38766;53.194;5.532;2022-11-10T04:24:23;11.00;99.90
51557;DHT22;38766;53.194;5.532;2022-11-10T04:26:48;11.00;99.90
51557;DHT22;38766;53.194;5.532;2022-11-10T04:29:17;11.00;99.90
51557;DHT22;38766;53.194;5.532;2022-11-10T04:31:43;11.00;99.90
51557;DHT22;38766;53.194;5.532;2022-11-10T04:34:11;11.00;99.90
51557;DHT22;38766;53.194;5.532;2022-11-10T04:36:39;11.00;99.90
51557;DHT22;38766;53.194;5.532;2022-11-10T04:39:06;11.00;99.90
51557;DHT22;38766;53.194;5.532;2022-11-10T04:41:32;10.90;99.90
51557;DHT22;38766;53.194;5.532;2022-11-10T04:43:58;10.90;99.90
51557;DHT22;38766;53.194;5.532;2022-11-10T04:48:58;10.90;99.90
51557;DHT22;38766;53.194;5.532;2022-11-10T04:51:29;10.80;99.90
51557;DHT22;38766;53.194;5.532;2022-11-10T04:53:54;10.80;99.90
51557;DHT22;38766;53.194;5.532;2022-11-10T04:56:22;10.80;99.90
51557;DHT22;38766;53.194;5.532;2022-11-10T04:58:48;10.80;99.90
51557;DHT22;38766;53.194;5.532;2022-11-10T05:01:17;10.90;99.90
51557;DHT22;38766;53.194;5.532;2022-11-10T05:03:43;10.80;99.90
51557;DHT22;38766;53.194;5.532;2022-11-10T05:06:10;10.90;99.90
51557;DHT22;38766;53.194;5.532;2022-11-10T05:08:36;10.90;99.90
51557;DHT22;38766;53.194;5.532;2022-11-10T05:11:02;10.90;99.90
51557;DHT22;38766;53.194;5.532;2022-11-10T05:13:28;10.90;99.90
51557;DHT22;38766;53.194;5.532;2022-11-10T05:15:53;10.90;99.90
51557;DHT22;38766;53.194;5.532;2022-11-10T05:18:19;10.90;99.90
51557;DHT22;38766;53.194;5.532;2022-11-10T05:20:45;10.90;99.90
51557;DHT22;38766;53.194;5.532;2022-11-10T05:23:10;10.90;99.90
51557;DHT22;38766;53.194;5.532;2022-11-10T05:25:54;10.90;99.90
51557;DHT22;38766;53.194;5.532;2022-11-10T05:28:20;10.90;99.90
51557;DHT22;38766;53.194;5.532;2022-11-10T05:30:46;10.90;99.90
51557;DHT22;38766;53.194;5.532;2022-11-10T05:33:11;10.90;99.90
51557;DHT22;38766;53.194;5.532;2022-11-10T05:35:37;10.90;99.90
51557;DHT22;38766;53.194;5.532;2022-11-10T05:38:03;10.80;99.90
51557;DHT22;38766;53.194;5.532;2022-11-10T05:40:29;10.80;99.90
51557;DHT22;38766;53.194;5.532;2022-11-10T05:42:55;10.80;99.90
51557;DHT22;38766;53.194;5.532;2022-11-10T05:45:23;10.80;99.90
51557;DHT22;38766;53.194;5.532;2022-11-10T05:47:49;10.70;99.90
51557;DHT22;38766;53.194;5.532;2022-11-10T05:50:16;10.70;99.90
51557;DHT22;38766;53.194;5.532;2022-11-10T05:52:45;10.70;99.90
51557;DHT22;38766;53.194;5.532;2022-11-10T05:55:12;10.70;99.90
51557;DHT22;38766;53.194;5.532;2022-11-10T05:57:41;10.70;99.90
51557;DHT22;38766;53.194;5.532;2022-11-10T06:00:07;10.70;99.90
51557;DHT22;38766;53.194;5.532;2022-11-10T06:02:33;10.70;99.90
51557;DHT22;38766;53.194;5.532;2022-11-10T06:04:59;10.70;99.90
51557;DHT22;38766;53.194;5.532;2022-11-10T06:07:25;10.70;99.90
51557;DHT22;38766;53.194;5.532;2022-11-10T06:09:50;10.70;99.90
51557;DHT22;38766;53.194;5.532;2022-11-10T06:12:16;10.70;99.90
51557;DHT22;38766;53.194;5.532;2022-11-10T06:14:41;10.60;99.90
51557;DHT22;38766;53.194;5.532;2022-11-10T06:17:07;10.60;99.90
51557;DHT22;38766;53.194;5.532;2022-11-10T06:19:33;10.70;99.90
51557;DHT22;38766;53.194;5.532;2022-11-10T06:21:58;10.60;99.90
51557;DHT22;38766;53.194;5.532;2022-11-10T06:24:24;10.70;99.90
51557;DHT22;38766;53.194;5.532;2022-11-10T06:26:49;10.70;99.90
51557;DHT22;38766;53.194;5.532;2022-11-10T06:29:15;10.70;99.90
51557;DHT22;38766;53.194;5.532;2022-11-10T06:31:40;10.70;99.90
51557;DHT22;38766;53.194;5.532;2022-11-10T06:34:06;10.80;99.90
51557;DHT22;38766;53.194;5.532;2022-11-10T06:36:32;10.80;99.90
51557;DHT22;38766;53.194;5.532;2022-11-10T06:38:57;10.90;99.90
51557;DHT22;38766;53.194;5.532;2022-11-10T06:41:23;10.90;99.90
51557;DHT22;38766;53.194;5.532;2022-11-10T06:43:48;10.90;99.90
51557;DHT22;38766;53.194;5.532;2022-11-10T06:46:14;10.90;99.90
51557;DHT22;38766;53.194;5.532;2022-11-10T06:48:40;11.00;99.90
51557;DHT22;38766;53.194;5.532;2022-11-10T06:51:05;11.00;99.90
51557;DHT22;38766;53.194;5.532;2022-11-10T06:53:31;11.00;99.90
51557;DHT22;38766;53.194;5.532;2022-11-10T06:55:56;11.00;99.90
51557;DHT22;38766;53.194;5.532;2022-11-10T06:58:22;11.00;99.90
51557;DHT22;38766;53.194;5.532;2022-11-10T07:00:48;11.00;99.90
51557;DHT22;38766;53.194;5.532;2022-11-10T07:03:15;11.10;99.90
51557;DHT22;38766;53.194;5.532;2022-11-10T07:05:41;11.10;99.90
51557;DHT22;38766;53.194;5.532;2022-11-10T07:08:13;11.10;99.90
51557;DHT22;38766;53.194;5.532;2022-11-10T07:10:53;11.10;99.90
51557;DHT22;38766;53.194;5.532;2022-11-10T07:13:19;11.00;99.90
51557;DHT22;38766;53.194;5.532;2022-11-10T07:15:44;11.10;99.90
51557;DHT22;38766;53.194;5.532;2022-11-10T07:18:10;11.00;99.90
51557;DHT22;38766;53.194;5.532;2022-11-10T07:20:36;11.00;99.90
51557;DHT22;38766;53.194;5.532;2022-11-10T07:23:06;11.10;99.90
51557;DHT22;38766;53.194;5.532;2022-11-10T07:25:34;11.00;99.90
51557;DHT22;38766;53.194;5.532;2022-11-10T07:28:02;11.10;99.90
51557;DHT22;38766;53.194;5.532;2022-11-10T07:30:29;11.10;99.90
51557;DHT22;38766;53.194;5.532;2022-11-10T07:33:10;11.10;99.90
51557;DHT22;38766;53.194;5.532;2022-11-10T07:35:36;11.20;99.90
51557;DHT22;38766;53.194;5.532;2022-11-10T07:38:04;11.20;99.90
51557;DHT22;38766;53.194;5.532;2022-11-10T07:40:30;11.20;99.90
51557;DHT22;38766;53.194;5.532;2022-11-10T07:42:56;11.20;99.90
51557;DHT22;38766;53.194;5.532;2022-11-10T07:45:22;11.30;99.90
51557;DHT22;38766;53.194;5.532;2022-11-10T07:47:48;11.30;99.90
51557;DHT22;38766;53.194;5.532;2022-11-10T07:50:15;11.40;99.90
51557;DHT22;38766;53.194;5.532;2022-11-10T07:52:41;11.40;99.90
51557;DHT22;38766;53.194;5.532;2022-11-10T07:55:07;11.40;99.90
51557;DHT22;38766;53.194;5.532;2022-11-10T07:57:33;11.40;99.90
51557;DHT22;38766;53.194;5.532;2022-11-10T07:59:58;11.50;99.90
51557;DHT22;38766;53.194;5.532;2022-11-10T08:02:24;11.60;99.90
51557;DHT22;38766;53.194;5.532;2022-11-10T08:04:50;11.70;99.90
51557;DHT22;38766;53.194;5.532;2022-11-10T08:07:16;11.80;99.90
51557;DHT22;38766;53.194;5.532;2022-11-10T08:09:42;11.80;99.90
51557;DHT22;38766;53.194;5.532;2022-11-10T08:12:07;11.80;99.90
51557;DHT22;38766;53.194;5.532;2022-11-10T08:14:33;11.90;99.90
51557;DHT22;38766;53.194;5.532;2022-11-10T08:16:58;11.90;99.90
51557;DHT22;38766;53.194;5.532;2022-11-10T08:19:24;12.00;99.90
51557;DHT22;38766;53.194;5.532;2022-11-10T08:21:50;12.00;99.90
51557;DHT22;38766;53.194;5.532;2022-11-10T08:24:15;12.00;99.90
51557;DHT22;38766;53.194;5.532;2022-11-10T08:26:41;12.10;99.90
51557;DHT22;38766;53.194;5.532;2022-11-10T08:29:06;12.10;99.90
51557;DHT22;38766;53.194;5.532;2022-11-10T08:31:32;12.10;99.90
51557;DHT22;38766;53.194;5.532;2022-11-10T08:34:01;12.10;99.90
51557;DHT22;38766;53.194;5.532;2022-11-10T08:36:26;12.20;99.90
51557;DHT22;38766;53.194;5.532;2022-11-10T08:38:52;12.20;99.90
51557;DHT22;38766;53.194;5.532;2022-11-10T08:41:18;12.30;99.90
51557;DHT22;38766;53.194;5.532;2022-11-10T08:43:43;12.40;99.90
51557;DHT22;38766;53.194;5.532;2022-11-10T08:46:09;12.50;99.90
51557;DHT22;38766;53.194;5.532;2022-11-10T08:48:34;12.60;99.90
51557;DHT22;38766;53.194;5.532;2022-11-10T08:51:00;12.80;99.90
51557;DHT22;38766;53.194;5.532;2022-11-10T08:53:26;12.90;99.90
51557;DHT22;38766;53.194;5.532;2022-11-10T08:55:52;13.00;99.90
51557;DHT22;38766;53.194;5.532;2022-11-10T08:58:20;13.10;99.90
51557;DHT22;38766;53.194;5.532;2022-11-10T09:00:46;13.20;99.90
51557;DHT22;38766;53.194;5.532;2022-11-10T09:03:15;13.20;99.90
51557;DHT22;38766;53.194;5.532;2022-11-10T09:05:43;13.20;99.90
51557;DHT22;38766;53.194;5.532;2022-11-10T09:08:09;13.20;99.90
51557;DHT22;38766;53.194;5.532;2022-11-10T09:10:40;13.30;99.90
51557;DHT22;38766;53.194;5.532;2022-11-10T09:13:06;13.50;99.90
51557;DHT22;38766;53.194;5.532;2022-11-10T09:15:33;13.80;99.90
51557;DHT22;38766;53.194;5.532;2022-11-10T09:18:00;14.20;99.90
51557;DHT22;38766;53.194;5.532;2022-11-10T09:20:27;14.30;99.90
51557;DHT22;38766;53.194;5.532;2022-11-10T09:22:53;14.50;99.90
51557;DHT22;38766;53.194;5.532;2022-11-10T09:25:19;14.60;99.90
51557;DHT22;38766;53.194;5.532;2022-11-10T09:27:45;14.60;99.90
51557;DHT22;38766;53.194;5.532;2022-11-10T09:30:11;14.50;99.90
51557;DHT22;38766;53.194;5.532;2022-11-10T09:32:37;14.40;99.90
51557;DHT22;38766;53.194;5.532;2022-11-10T09:35:03;14.40;99.90
51557;DHT22;38766;53.194;5.532;2022-11-10T09:37:29;14.40;99.90
51557;DHT22;38766;53.194;5.532;2022-11-10T09:39:55;14.30;99.90
51557;DHT22;38766;53.194;5.532;2022-11-10T09:42:35;14.30;99.90
51557;DHT22;38766;53.194;5.532;2022-11-10T09:45:10;14.10;99.90
51557;DHT22;38766;53.194;5.532;2022-11-10T09:50:14;13.90;99.90
51557;DHT22;38766;53.194;5.532;2022-11-10T09:52:43;13.90;99.90
51557;DHT22;38766;53.194;5.532;2022-11-10T09:55:30;13.90;99.90
51557;DHT22;38766;53.194;5.532;2022-11-10T09:57:58;13.80;99.90
51557;DHT22;38766;53.194;5.532;2022-11-10T10:00:24;13.80;99.90
51557;DHT22;38766;53.194;5.532;2022-11-10T10:02:54;13.80;99.90
51557;DHT22;38766;53.194;5.532;2022-11-10T10:05:44;13.80;99.90
51557;DHT22;38766;53.194;5.532;2022-11-10T10:08:30;13.80;99.90
51557;DHT22;38766;53.194;5.532;2022-11-10T10:16:43;13.80;99.90
51557;DHT22;38766;53.194;5.532;2022-11-10T10:24:26;13.70;99.90
51557;DHT22;38766;53.194;5.532;2022-11-10T10:26:57;13.60;99.90
51557;DHT22;38766;53.194;5.532;2022-11-10T10:29:58;13.60;99.90
51557;DHT22;38766;53.194;5.532;2022-11-10T10:32:17;13.60;99.90
51557;DHT22;38766;53.194;5.532;2022-11-10T10:34:44;13.60;99.90
51557;DHT22;38766;53.194;5.532;2022-11-10T10:37:25;13.70;99.90
51557;DHT22;38766;53.194;5.532;2022-11-10T10:39:53;13.70;99.90
51557;DHT22;38766;53.194;5.532;2022-11-10T10:42:30;13.70;99.90
51557;DHT22;38766;53.194;5.532;2022-11-10T10:45:24;13.70;99.90
51557;DHT22;38766;53.194;5.532;2022-11-10T10:47:52;13.60;99.90
51557;DHT22;38766;53.194;5.532;2022-11-10T10:50:29;13.60;99.90
51557;DHT22;38766;53.194;5.532;2022-11-10T10:53:15;13.60;99.90
51557;DHT22;38766;53.194;5.532;2022-11-10T10:56:04;13.70;99.90
51557;DHT22;38766;53.194;5.532;2022-11-10T10:58:36;13.70;99.90
51557;DHT22;38766;53.194;5.532;2022-11-10T11:03:42;13.70;99.90
51557;DHT22;38766;53.194;5.532;2022-11-10T11:11:26;13.60;99.90
51557;DHT22;38766;53.194;5.532;2022-11-10T11:13:52;13.60;99.90
51557;DHT22;38766;53.194;5.532;2022-11-10T11:16:18;13.60;99.90
51557;DHT22;38766;53.194;5.532;2022-11-10T11:18:43;13.60;99.90
51557;DHT22;38766;53.194;5.532;2022-11-10T11:21:27;13.60;99.90
51557;DHT22;38766;53.194;5.532;2022-11-10T11:33:30;13.40;99.90
51557;DHT22;38766;53.194;5.532;2022-11-10T11:38:51;13.20;99.90
51557;DHT22;38766;53.194;5.532;2022-11-10T11:44:30;13.20;99.90
51557;DHT22;38766;53.194;5.532;2022-11-10T11:47:14;13.20;99.90
51557;DHT22;38766;53.194;5.532;2022-11-10T11:52:45;13.30;99.90
51557;DHT22;38766;53.194;5.532;2022-11-10T11:58:06;13.40;99.90
51557;DHT22;38766;53.194;5.532;2022-11-10T12:00:48;13.50;99.90
51557;DHT22;38766;53.194;5.532;2022-11-10T12:06:22;13.50;99.90
51557;DHT22;38766;53.194;5.532;2022-11-10T12:09:19;13.60;99.90
51557;DHT22;38766;53.194;5.532;2022-11-10T12:14:47;13.70;99.90
51557;DHT22;38766;53.194;5.532;2022-11-10T12:20:24;13.70;99.90
51557;DHT22;38766;53.194;5.532;2022-11-10T12:28:44;13.60;99.90
51557;DHT22;38766;53.194;5.532;2022-11-10T12:31:18;13.60;99.90
51557;DHT22;38766;53.194;5.532;2022-11-10T12:34:01;13.60;99.90
51557;DHT22;38766;53.194;5.532;2022-11-10T12:36:29;13.50;99.90
51557;DHT22;38766;53.194;5.532;2022-11-10T12:41:47;13.50;99.90
51557;DHT22;38766;53.194;5.532;2022-11-10T12:44:27;13.50;99.90
51557;DHT22;38766;53.194;5.532;2022-11-10T12:46:56;13.50;99.90
51557;DHT22;38766;53.194;5.532;2022-11-10T12:49:37;13.50;99.90
51557;DHT22;38766;53.194;5.532;2022-11-10T12:52:20;13.50;99.90
51557;DHT22;38766;53.194;5.532;2022-11-10T12:54:47;13.50;99.90
51557;DHT22;38766;53.194;5.532;2022-11-10T12:57:25;13.50;99.90
51557;DHT22;38766;53.194;5.532;2022-11-10T13:00:06;13.60;99.90
51557;DHT22;38766;53.194;5.532;2022-11-10T13:02:45;13.60;99.90
51557;DHT22;38766;53.194;5.532;2022-11-10T13:07:48;13.70;99.90
51557;DHT22;38766;53.194;5.532;2022-11-10T13:10:22;13.70;99.90
51557;DHT22;38766;53.194;5.532;2022-11-10T13:20:57;13.80;99.90
51557;DHT22;38766;53.194;5.532;2022-11-10T13:26:03;13.90;99.90
51557;DHT22;38766;53.194;5.532;2022-11-10T13:34:10;13.90;99.90
51557;DHT22;38766;53.194;5.532;2022-11-10T13:36:45;14.00;99.90
51557;DHT22;38766;53.194;5.532;2022-11-10T13:39:31;14.00;99.90
51557;DHT22;38766;53.194;5.532;2022-11-10T13:44:40;13.90;99.90
51557;DHT22;38766;53.194;5.532;2022-11-10T13:53:19;13.90;99.90
51557;DHT22;38766;53.194;5.532;2022-11-10T13:58:43;13.80;99.90
51557;DHT22;38766;53.194;5.532;2022-11-10T14:09:25;13.70;99.90
51557;DHT22;38766;53.194;5.532;2022-11-10T14:11:57;13.70;99.90
51557;DHT22;38766;53.194;5.532;2022-11-10T14:14:33;13.70;99.90
51557;DHT22;38766;53.194;5.532;2022-11-10T14:17:00;13.70;99.90
51557;DHT22;38766;53.194;5.532;2022-11-10T14:22:10;13.80;99.90
51557;DHT22;38766;53.194;5.532;2022-11-10T14:27:28;13.90;99.90
51557;DHT22;38766;53.194;5.532;2022-11-10T14:32:33;14.00;99.90
51557;DHT22;38766;53.194;5.532;2022-11-10T14:35:00;14.00;99.90
51557;DHT22;38766;53.194;5.532;2022-11-10T14:37:27;14.00;99.90
51557;DHT22;38766;53.194;5.532;2022-11-10T14:39:59;14.00;99.90
51557;DHT22;38766;53.194;5.532;2022-11-10T14:42:30;13.90;99.90
51557;DHT22;38766;53.194;5.532;2022-11-10T14:47:31;13.80;99.90
51557;DHT22;38766;53.194;5.532;2022-11-10T14:50:15;13.80;99.90
51557;DHT22;38766;53.194;5.532;2022-11-10T14:52:42;13.90;99.90
51557;DHT22;38766;53.194;5.532;2022-11-10T14:55:15;13.80;99.90
51557;DHT22;38766;53.194;5.532;2022-11-10T14:57:46;13.80;99.90
51557;DHT22;38766;53.194;5.532;2022-11-10T15:00:17;13.90;99.90
51557;DHT22;38766;53.194;5.532;2022-11-10T15:02:44;13.80;99.90
51557;DHT22;38766;53.194;5.532;2022-11-10T15:05:14;13.80;99.90
51557;DHT22;38766;53.194;5.532;2022-11-10T15:07:40;13.80;99.90
51557;DHT22;38766;53.194;5.532;2022-11-10T15:10:17;13.80;99.90
51557;DHT22;38766;53.194;5.532;2022-11-10T15:12:43;13.70;99.90
51557;DHT22;38766;53.194;5.532;2022-11-10T15:15:22;13.80;99.90
51557;DHT22;38766;53.194;5.532;2022-11-10T15:17:49;13.70;99.90
51557;DHT22;38766;53.194;5.532;2022-11-10T15:20:38;13.70;99.90
51557;DHT22;38766;53.194;5.532;2022-11-10T15:23:21;13.70;99.90
51557;DHT22;38766;53.194;5.532;2022-11-10T15:25:49;13.70;99.90
51557;DHT22;38766;53.194;5.532;2022-11-10T15:28:27;13.80;99.90
51557;DHT22;38766;53.194;5.532;2022-11-10T15:30:56;13.70;99.90
51557;DHT22;38766;53.194;5.532;2022-11-10T15:33:27;13.60;99.90
51557;DHT22;38766;53.194;5.532;2022-11-10T15:35:54;13.50;99.90
51557;DHT22;38766;53.194;5.532;2022-11-10T15:38:27;13.50;99.90
51557;DHT22;38766;53.194;5.532;2022-11-10T15:41:13;13.50;99.90
51557;DHT22;38766;53.194;5.532;2022-11-10T15:43:39;13.40;99.90
51557;DHT22;38766;53.194;5.532;2022-11-10T15:48:44;13.50;99.90
51557;DHT22;38766;53.194;5.532;2022-11-10T15:51:13;13.30;99.90
51557;DHT22;38766;53.194;5.532;2022-11-10T15:53:50;13.40;99.90
51557;DHT22;38766;53.194;5.532;2022-11-10T15:56:19;13.40;99.90
51557;DHT22;38766;53.194;5.532;2022-11-10T15:58:48;13.40;99.90
51557;DHT22;38766;53.194;5.532;2022-11-10T16:01:14;13.40;99.90
51557;DHT22;38766;53.194;5.532;2022-11-10T16:03:41;13.30;99.90
51557;DHT22;38766;53.194;5.532;2022-11-10T16:06:15;13.30;99.90
51557;DHT22;38766;53.194;5.532;2022-11-10T16:08:41;13.30;99.90
51557;DHT22;38766;53.194;5.532;2022-11-10T16:11:14;13.40;99.90
51557;DHT22;38766;53.194;5.532;2022-11-10T16:13:40;13.30;99.90
51557;DHT22;38766;53.194;5.532;2022-11-10T16:16:06;13.30;99.90
51557;DHT22;38766;53.194;5.532;2022-11-10T16:18:32;13.40;99.90
51557;DHT22;38766;53.194;5.532;2022-11-10T16:20:57;13.30;99.90
51557;DHT22;38766;53.194;5.532;2022-11-10T16:23:23;13.30;99.90
51557;DHT22;38766;53.194;5.532;2022-11-10T16:25:52;13.40;99.90
51557;DHT22;38766;53.194;5.532;2022-11-10T16:28:22;13.40;99.90
51557;DHT22;38766;53.194;5.532;2022-11-10T16:30:48;13.30;99.90
51557;DHT22;38766;53.194;5.532;2022-11-10T16:33:16;13.30;99.90
51557;DHT22;38766;53.194;5.532;2022-11-10T16:35:42;13.30;99.90
51557;DHT22;38766;53.194;5.532;2022-11-10T16:38:24;13.40;99.90
51557;DHT22;38766;53.194;5.532;2022-11-10T16:40:57;13.40;99.90
51557;DHT22;38766;53.194;5.532;2022-11-10T16:43:23;13.30;99.90
51557;DHT22;38766;53.194;5.532;2022-11-10T16:45:51;13.40;99.90
51557;DHT22;38766;53.194;5.532;2022-11-10T16:48:32;13.40;99.90
51557;DHT22;38766;53.194;5.532;2022-11-10T16:50:59;13.30;99.90
51557;DHT22;38766;53.194;5.532;2022-11-10T16:53:30;13.40;99.90
51557;DHT22;38766;53.194;5.532;2022-11-10T16:55:56;13.40;99.90
51557;DHT22;38766;53.194;5.532;2022-11-10T16:58:25;13.40;99.90
51557;DHT22;38766;53.194;5.532;2022-11-10T17:00:56;13.40;99.90
51557;DHT22;38766;53.194;5.532;2022-11-10T17:03:37;13.40;99.90
51557;DHT22;38766;53.194;5.532;2022-11-10T17:06:05;13.50;99.90
51557;DHT22;38766;53.194;5.532;2022-11-10T17:08:32;13.40;99.90
51557;DHT22;38766;53.194;5.532;2022-11-10T17:10:59;13.30;99.90
51557;DHT22;38766;53.194;5.532;2022-11-10T17:13:26;13.40;99.90
51557;DHT22;38766;53.194;5.532;2022-11-10T17:15:53;13.40;99.90
51557;DHT22;38766;53.194;5.532;2022-11-10T17:18:23;13.40;99.90
51557;DHT22;38766;53.194;5.532;2022-11-10T17:20:50;13.30;99.90
51557;DHT22;38766;53.194;5.532;2022-11-10T17:23:20;13.30;99.90
51557;DHT22;38766;53.194;5.532;2022-11-10T17:25:49;13.30;99.90
51557;DHT22;38766;53.194;5.532;2022-11-10T17:28:16;13.30;99.90
51557;DHT22;38766;53.194;5.532;2022-11-10T17:30:43;13.40;99.90
51557;DHT22;38766;53.194;5.532;2022-11-10T17:33:10;13.40;99.90
51557;DHT22;38766;53.194;5.532;2022-11-10T17:35:46;13.40;99.90